Time;durP1;ratioP1;P1;durP2;ratioP2;P2;SDS_P1;SDS_P2;PMS_P1;PMS_P2;Temp;Humidity;BMP_temperature;BMP_pressure;BME280_temperature;BME280_humidity;BME280_pressure;Samples;Min_cycle;Max_cycle;Signal;HPM_P1;HPM_P2
2023/03/14 00:00:29;;;;;;;4.68;3.40;;;;;;;0.49;86.61;96636.66;6321508;28;20101;-68
2023/03/14 00:03:34;;;;;;;4.50;2.58;;;;;;;0.47;86.36;96628.06;6324371;28;20485;-68
2023/03/14 00:06:39;;;;;;;5.22;3.88;;;;;;;0.32;86.73;96622.44;6323758;28;20047;-68
2023/03/14 00:10:06;;;;;;;5.63;3.67;;;;;;;0.36;86.49;96611.09;6322884;28;20090;-68
2023/03/14 00:13:28;;;;;;;5.80;3.97;;;;;;;0.54;86.64;96598.50;6324050;28;20052;-68
2023/03/14 00:16:52;;;;;;;6.93;3.60;;;;;;;0.44;86.20;96592.78;6323855;28;20059;-68
2023/03/14 00:20:15;;;;;;;5.97;3.70;;;;;;;0.40;86.95;96599.78;6323900;28;20545;-69
2023/03/14 00:23:41;;;;;;;9.20;4.32;;;;;;;0.56;87.06;96601.91;6323666;28;20043;-69
2023/03/14 00:27:04;;;;;;;5.60;2.35;;;;;;;0.67;86.77;96599.84;6323568;28;20056;-68
2023/03/14 00:30:27;;;;;;;9.70;4.53;;;;;;;0.64;86.03;96599.94;6323390;28;20175;-68
2023/03/14 00:33:53;;;;;;;2.88;2.28;;;;;;;0.63;86.59;96593.09;6322334;28;20048;-68
2023/03/14 00:37:15;;;;;;;9.98;5.22;;;;;;;0.58;85.97;96595.81;6322439;28;20052;-68
2023/03/14 00:40:40;;;;;;;10.90;4.88;;;;;;;0.75;85.97;96590.13;6323384;28;20048;-68
2023/03/14 00:44:02;;;;;;;5.75;3.22;;;;;;;0.74;85.89;96601.38;6323256;28;20119;-69
2023/03/14 00:47:26;;;;;;;13.60;4.63;;;;;;;0.50;85.74;96581.38;6323079;28;20040;-69
2023/03/14 00:50:49;;;;;;;8.10;3.92;;;;;;;0.59;86.34;96599.22;6323073;28;20052;-69
2023/03/14 00:54:12;;;;;;;6.07;3.33;;;;;;;0.72;86.22;96599.72;6323221;28;20505;-68
2023/03/14 00:57:16;;;;;;;12.57;5.43;;;;;;;0.62;85.79;96596.53;6322891;28;20421;-68
2023/03/14 01:00:20;;;;;;;;;;;;;;;0.55;85.97;96600.22;6322889;28;20089;-69
2023/03/14 01:03:25;;;;;;;7.63;4.68;;;;;;;0.69;85.56;96616.19;6322517;28;19926;-70
2023/03/14 01:06:30;;;;;;;9.30;5.10;;;;;;;0.57;85.60;96608.81;6322381;28;20444;-69
2023/03/14 01:09:35;;;;;;;10.90;4.80;;;;;;;0.53;86.84;96618.38;6322334;28;20043;-70
2023/03/14 01:12:41;;;;;;;6.82;4.28;;;;;;;0.55;86.61;96632.13;6321080;28;20043;-68
2023/03/14 01:15:46;;;;;;;7.75;4.47;;;;;;;0.69;86.05;96617.94;6321780;28;20132;-70
2023/03/14 01:18:52;;;;;;;4.88;2.88;;;;;;;0.66;85.62;96624.06;6321976;28;20412;-69
2023/03/14 01:22:14;;;;;;;;;;;;;;;0.65;85.82;96623.22;6322775;28;20051;-69
2023/03/14 01:25:42;;;;;;;4.07;2.22;;;;;;;0.58;85.69;96626.03;6322442;28;19916;-70
2023/03/14 01:29:04;;;;;;;5.53;3.15;;;;;;;0.48;86.08;96624.59;6322323;28;20138;-69
2023/03/14 01:32:27;;;;;;;7.57;4.35;;;;;;;0.50;86.79;96602.94;6322211;28;20063;-69
2023/03/14 01:35:32;;;;;;;5.65;3.63;;;;;;;0.62;86.43;96627.63;6320574;28;20420;-69
2023/03/14 01:38:39;;;;;;;7.15;3.17;;;;;;;0.65;85.98;96601.63;6321658;28;20043;-69
2023/03/14 01:41:43;;;;;;;3.72;2.78;;;;;;;0.65;86.16;96627.53;6321816;28;20497;-69
2023/03/14 01:44:53;;;;;;;5.28;3.63;;;;;;;0.64;85.58;96628.44;6321376;28;20131;-69
2023/03/14 01:47:58;;;;;;;4.05;2.75;;;;;;;0.73;85.48;96632.47;6321183;28;20054;-69
2023/03/14 01:51:01;;;;;;;;;;;;;;;0.75;85.97;96628.97;6320452;28;20040;-69
2023/03/14 01:54:22;;;;;;;3.42;2.25;;;;;;;0.72;85.33;96631.66;6319402;28;19989;-69
2023/03/14 01:57:35;;;;;;;4.88;3.00;;;;;;;0.72;85.87;96634.22;6321084;28;20047;-69
2023/03/14 02:00:41;;;;;;;6.63;4.00;;;;;;;0.59;85.74;96635.47;6321043;28;20054;-69
2023/03/14 02:03:58;;;;;;;5.53;2.92;;;;;;;0.69;86.05;96618.78;6321217;28;20405;-68
2023/03/14 02:07:23;;;;;;;4.22;2.58;;;;;;;0.70;85.32;96623.06;6321036;28;20472;-68
2023/03/14 02:10:32;;;;;;;5.07;3.50;;;;;;;0.67;85.77;96625.75;6320554;28;20062;-69
2023/03/14 02:13:38;;;;;;;3.35;2.63;;;;;;;0.65;85.62;96617.16;6320794;28;20086;-68
2023/03/14 02:16:41;;;;;;;6.53;3.40;;;;;;;0.58;85.90;96626.88;6320156;28;20066;-68
2023/03/14 02:20:14;;;;;;;3.22;2.50;;;;;;;0.81;85.81;96618.41;6320540;28;20046;-69
2023/03/14 02:23:25;;;;;;;5.53;3.28;;;;;;;0.68;85.58;96622.28;6320034;28;20553;-68
2023/03/14 02:26:43;;;;;;;5.55;3.38;;;;;;;0.86;86.01;96619.13;6320401;28;20510;-69
2023/03/14 02:30:00;;;;;;;6.30;4.07;;;;;;;0.75;85.90;96616.00;6320258;28;20039;-69
2023/03/14 02:33:14;;;;;;;5.63;3.17;;;;;;;0.83;85.73;96615.78;6319905;28;20056;-69
2023/03/14 02:36:23;;;;;;;7.90;5.00;;;;;;;0.78;86.04;96615.91;6320155;28;20044;-69
2023/03/14 02:39:46;;;;;;;5.70;3.17;;;;;;;0.90;86.04;96612.09;6319962;28;20036;-69
2023/03/14 02:42:49;;;;;;;7.50;4.55;;;;;;;0.82;85.90;96609.75;6319929;28;20039;-68
2023/03/14 02:45:52;;;;;;;5.57;2.78;;;;;;;0.78;85.36;96600.38;6319536;28;20040;-69
2023/03/14 02:49:01;;;;;;;3.53;2.45;;;;;;;0.82;85.55;96617.53;6319925;28;20044;-69
2023/03/14 02:52:03;;;;;;;6.82;3.55;;;;;;;0.84;85.87;96610.53;6319496;28;20059;-70
2023/03/14 02:55:05;;;;;;;3.90;2.05;;;;;;;0.96;85.78;96619.69;6319356;28;20048;-69
2023/03/14 02:58:07;;;;;;;8.73;4.10;;;;;;;0.87;85.41;96620.81;6319494;28;20055;-68
2023/03/14 03:01:09;;;;;;;7.60;4.78;;;;;;;0.98;85.41;96615.31;6319404;28;20047;-70
2023/03/14 03:04:12;;;;;;;4.53;3.20;;;;;;;1.06;85.14;96628.03;6319640;28;20044;-70
2023/03/14 03:07:16;;;;;;;5.95;3.00;;;;;;;1.05;85.52;96631.53;6318380;28;20047;-69
2023/03/14 03:10:22;;;;;;;5.70;3.30;;;;;;;0.99;84.94;96647.22;6317494;28;20052;-69
2023/03/14 03:13:26;;;;;;;5.82;3.20;;;;;;;1.04;85.11;96645.34;6319085;28;20429;-69
2023/03/14 03:16:31;;;;;;;6.88;3.88;;;;;;;1.08;85.72;96636.63;6319429;28;20519;-69
2023/03/14 03:19:35;;;;;;;5.40;3.70;;;;;;;1.03;85.56;96649.69;6319282;28;20055;-71
2023/03/14 03:22:42;;;;;;;5.57;3.60;;;;;;;1.05;85.84;96653.09;6319074;28;20498;-70
2023/03/14 03:25:52;;;;;;;8.55;5.05;;;;;;;0.98;85.65;96645.56;6319667;28;20309;-70
2023/03/14 03:28:55;;;;;;;9.32;5.95;;;;;;;1.11;86.14;96644.28;6319149;28;20043;-69
2023/03/14 03:32:01;;;;;;;7.25;4.85;;;;;;;1.10;85.98;96645.16;6318993;28;20046;-69
2023/03/14 03:35:05;;;;;;;8.05;5.20;;;;;;;1.18;86.22;96632.81;6320920;28;20412;-69
2023/03/14 03:38:09;;;;;;;7.82;5.13;;;;;;;1.19;85.47;96634.53;6324114;28;20051;-69
2023/03/14 03:41:14;;;;;;;4.38;3.00;;;;;;;1.22;85.94;96634.44;6324226;28;20047;-69
2023/03/14 03:44:20;;;;;;;5.60;3.85;;;;;;;1.26;85.80;96645.53;6324259;28;20054;-68
2023/03/14 03:47:25;;;;;;;5.15;3.33;;;;;;;1.23;86.23;96646.47;6324116;28;20051;-70
2023/03/14 03:50:28;;;;;;;;;;;;;;;1.23;86.44;96654.25;6324367;28;20068;-70
2023/03/14 03:53:32;;;;;;;6.60;4.32;;;;;;;1.27;86.42;96649.81;6324118;28;20006;-70
2023/03/14 03:56:36;;;;;;;;;;;;;;;1.29;86.76;96667.03;6324460;28;20044;-68
2023/03/14 03:59:40;;;;;;;5.47;4.13;;;;;;;1.33;86.59;96658.28;6324019;28;19955;-69
2023/03/14 04:02:44;;;;;;;;;;;;;;;1.61;86.91;96664.28;6324170;28;20281;-69
2023/03/14 04:05:58;;;;;;;6.20;3.88;;;;;;;1.49;86.60;96662.94;6323034;28;19946;-70
2023/03/14 04:09:02;;;;;;;5.13;3.40;;;;;;;1.40;87.45;96650.28;6323540;28;20603;-69
2023/03/14 04:12:07;;;;;;;3.13;2.17;;;;;;;1.54;87.50;96667.09;6323199;28;20074;-70
2023/03/14 04:15:11;;;;;;;2.33;1.23;;;;;;;1.59;87.71;96699.81;6323295;28;20456;-69
2023/03/14 04:18:15;;;;;;;;;;;;;;;1.51;84.88;96697.47;6323761;28;20565;-69
2023/03/14 04:21:20;;;;;;;0.80;0.70;;;;;;;1.15;84.05;96695.09;6323360;28;19973;-69
2023/03/14 04:24:25;;;;;;;1.10;1.00;;;;;;;0.88;83.41;96697.66;6323306;28;20043;-69
2023/03/14 04:27:30;;;;;;;0.70;0.70;;;;;;;0.84;84.32;96706.38;6323081;28;20050;-70
2023/03/14 04:30:34;;;;;;;1.10;1.00;;;;;;;0.70;83.85;96708.53;6323087;28;20043;-69
2023/03/14 04:33:39;;;;;;;1.25;1.17;;;;;;;0.58;84.25;96722.66;6323192;28;20058;-69
2023/03/14 04:36:44;;;;;;;1.60;1.38;;;;;;;0.66;83.84;96728.47;6323071;28;20042;-70
2023/03/14 04:39:49;;;;;;;1.80;1.38;;;;;;;0.62;84.33;96721.72;6323358;28;20047;-70
2023/03/14 04:42:54;;;;;;;1.70;1.60;;;;;;;0.56;84.04;96723.59;6322736;28;20545;-70
2023/03/14 04:46:00;;;;;;;1.70;1.60;;;;;;;0.53;83.82;96732.28;6322645;28;20051;-69
2023/03/14 04:49:05;;;;;;;1.33;1.23;;;;;;;0.54;83.85;96739.19;6323214;28;20051;-69
2023/03/14 04:52:10;;;;;;;1.60;1.40;;;;;;;0.60;84.06;96727.81;6322910;28;20044;-69
2023/03/14 04:55:14;;;;;;;1.98;1.88;;;;;;;0.60;83.38;96748.53;6322277;28;20488;-70
2023/03/14 04:58:20;;;;;;;1.52;1.38;;;;;;;0.69;83.62;96765.56;6322446;28;20060;-70
2023/03/14 05:01:26;;;;;;;1.60;1.50;;;;;;;0.65;82.97;96768.22;6322712;28;20425;-69
2023/03/14 05:04:32;;;;;;;1.42;1.30;;;;;;;0.73;82.56;96772.31;6322268;28;20081;-69
2023/03/14 05:07:37;;;;;;;2.58;2.13;;;;;;;0.58;81.59;96789.97;6322296;28;20046;-70
2023/03/14 05:10:41;;;;;;;1.73;1.63;;;;;;;0.55;80.81;96802.16;6322508;28;20051;-69
2023/03/14 05:13:46;;;;;;;2.20;2.00;;;;;;;0.60;79.15;96788.22;6320931;28;20031;-69
2023/03/14 05:16:51;;;;;;;1.67;1.58;;;;;;;0.46;78.17;96792.91;6322372;28;20043;-69
2023/03/14 05:19:55;;;;;;;1.65;1.55;;;;;;;0.41;77.16;96803.38;6320829;28;20036;-69
2023/03/14 05:22:58;;;;;;;;;;;;;;;0.57;75.53;96810.75;6321066;28;20047;-70
2023/03/14 05:26:03;;;;;;;1.67;1.58;;;;;;;0.55;74.65;96794.41;6320784;28;19931;-69
2023/03/14 05:29:06;;;;;;;;;;;;;;;0.75;74.11;96792.13;6322267;28;20193;-69
2023/03/14 05:32:11;;;;;;;2.30;1.70;;;;;;;0.82;72.11;96798.84;6321705;28;19972;-69
2023/03/14 05:35:16;;;;;;;1.80;1.48;;;;;;;0.87;70.82;96803.88;6321513;28;20040;-69
2023/03/14 05:38:21;;;;;;;1.80;1.70;;;;;;;0.96;68.05;96806.22;6320974;28;20120;-68
2023/03/14 05:41:26;;;;;;;1.67;1.58;;;;;;;1.07;67.21;96821.47;6320271;28;20120;-67
2023/03/14 05:44:30;;;;;;;1.65;1.38;;;;;;;1.19;66.85;96830.63;6320455;28;20135;-68
2023/03/14 05:47:35;;;;;;;1.70;1.60;;;;;;;1.34;65.62;96833.63;6321297;28;20081;-68
2023/03/14 05:50:40;;;;;;;1.60;1.13;;;;;;;1.56;63.05;96848.59;6321242;28;20501;-68
2023/03/14 05:53:45;;;;;;;1.50;1.40;;;;;;;1.52;63.53;96854.72;6320970;28;20036;-68
2023/03/14 05:56:50;;;;;;;1.50;1.40;;;;;;;1.55;62.12;96859.81;6320843;28;20440;-68
2023/03/14 05:59:53;;;;;;;;;;;;;;;1.74;61.51;96855.81;6321216;28;20565;-67
2023/03/14 06:02:58;;;;;;;2.95;1.95;;;;;;;1.68;60.07;96852.56;6320873;28;20057;-66
2023/03/14 06:06:02;;;;;;;1.38;1.27;;;;;;;1.67;58.32;96859.50;6320736;28;20417;-67
2023/03/14 06:09:06;;;;;;;;;;;;;;;1.76;58.09;96867.00;6321372;28;20543;-66
2023/03/14 06:12:09;;;;;;;1.92;1.73;;;;;;;1.74;57.83;96873.97;6319378;28;19984;-67
2023/03/14 06:15:13;;;;;;;;;;;;;;;1.95;58.32;96875.06;6321136;28;20065;-66
2023/03/14 06:18:18;;;;;;;1.95;1.33;;;;;;;1.98;56.97;96893.13;6320755;28;19966;-66
2023/03/14 06:21:21;;;;;;;;;;;;;;;2.02;57.50;96897.31;6320527;28;20078;-66
2023/03/14 06:24:26;;;;;;;1.75;1.65;;;;;;;1.99;58.03;96901.78;6320359;28;20014;-66
2023/03/14 06:27:31;;;;;;;1.58;1.48;;;;;;;2.06;58.30;96908.47;6320349;28;20081;-67
2023/03/14 06:30:34;;;;;;;2.15;1.98;;;;;;;2.08;58.30;96911.88;6320163;28;20044;-66
2023/03/14 06:33:38;;;;;;;2.17;1.92;;;;;;;2.28;58.38;96919.03;6320100;28;20081;-67
2023/03/14 06:36:43;;;;;;;2.25;2.05;;;;;;;2.57;57.75;96915.50;6320456;28;20405;-66
2023/03/14 06:39:47;;;;;;;1.83;1.73;;;;;;;2.64;55.85;96922.22;6320022;28;20058;-66
2023/03/14 06:42:52;;;;;;;3.22;2.17;;;;;;;2.57;52.89;96923.28;6319884;28;20036;-66
2023/03/14 06:45:57;;;;;;;1.90;1.80;;;;;;;2.53;53.55;96928.66;6320162;28;20447;-67
2023/03/14 06:49:02;;;;;;;2.38;1.95;;;;;;;2.56;53.46;96937.19;6319910;28;20044;-66
2023/03/14 06:52:07;;;;;;;1.75;1.45;;;;;;;2.67;53.65;96921.25;6319778;28;20093;-66
2023/03/14 06:55:12;;;;;;;3.70;1.58;;;;;;;2.89;53.28;96939.59;6319632;28;20059;-66
2023/03/14 06:58:17;;;;;;;2.33;1.67;;;;;;;2.86;52.49;96931.88;6301590;28;20161;-67
2023/03/14 07:01:26;;;;;;;1.40;1.15;;;;;;;2.84;51.47;96920.72;6319619;28;20051;-67
2023/03/14 07:04:31;;;;;;;1.60;1.50;;;;;;;2.68;51.11;96933.34;6319471;28;20036;-67
2023/03/14 07:07:34;;;;;;;2.90;1.95;;;;;;;2.74;51.71;96932.28;6319479;28;20577;-66
2023/03/14 07:10:40;;;;;;;1.85;1.58;;;;;;;2.83;50.53;96942.38;6319064;28;20046;-67
2023/03/14 07:13:44;;;;;;;1.80;1.40;;;;;;;2.81;50.89;96939.00;6319454;28;20085;-66
2023/03/14 07:16:49;;;;;;;1.52;1.30;;;;;;;3.06;50.92;96960.69;6319535;28;20493;-67
2023/03/14 07:19:53;;;;;;;3.67;1.73;;;;;;;3.39;50.74;96963.00;6319365;28;20043;-67
2023/03/14 07:22:59;;;;;;;2.22;1.95;;;;;;;3.83;49.50;96963.19;6319533;28;20048;-67
2023/03/14 07:26:03;;;;;;;2.50;1.70;;;;;;;3.99;49.39;96966.06;6319323;28;20054;-66
2023/03/14 07:29:07;;;;;;;2.00;1.77;;;;;;;4.43;47.38;96969.59;6319237;28;20051;-66
2023/03/14 07:32:14;;;;;;;;;;;;;;;4.76;46.85;96984.81;6319391;28;20036;-66
2023/03/14 07:35:18;;;;;;;2.75;2.30;;;;;;;4.45;46.77;96977.34;6319077;28;19959;-66
2023/03/14 07:38:22;;;;;;;2.92;1.98;;;;;;;4.53;46.96;96984.84;6319135;28;20539;-66
2023/03/14 07:41:29;;;;;;;1.90;1.42;;;;;;;4.66;46.26;96986.06;6319391;28;20107;-66
2023/03/14 07:44:33;;;;;;;2.92;1.67;;;;;;;4.70;45.75;96987.66;6317447;28;20459;-66
2023/03/14 07:47:38;;;;;;;1.90;1.60;;;;;;;4.78;47.06;97001.22;6319029;28;20059;-67
2023/03/14 07:50:41;;;;;;;;;;;;;;;5.27;45.97;97009.69;6319308;28;20082;-66
2023/03/14 07:53:46;;;;;;;2.13;1.92;;;;;;;4.75;44.87;97009.16;6318909;28;19980;-66
2023/03/14 07:56:51;;;;;;;2.50;1.70;;;;;;;4.60;46.32;97012.38;6318865;28;20061;-67
2023/03/14 07:59:56;;;;;;;1.50;1.40;;;;;;;4.66;45.75;97006.94;6317934;28;20109;-67
2023/03/14 08:03:00;;;;;;;2.00;1.80;;;;;;;4.83;46.20;97014.94;6318995;28;20568;-67
2023/03/14 08:06:03;;;;;;;;;;;;;;;5.31;44.90;97026.88;6317907;28;20040;-66
2023/03/14 08:09:08;;;;;;;1.85;1.42;;;;;;;4.93;44.12;97024.09;6318798;28;20053;-67
2023/03/14 08:12:13;;;;;;;2.58;1.90;;;;;;;4.54;44.10;97028.25;6318904;28;20094;-67
2023/03/14 08:15:17;;;;;;;2.60;1.90;;;;;;;4.55;45.07;97030.78;6318607;28;20066;-67
2023/03/14 08:18:22;;;;;;;1.83;1.65;;;;;;;5.14;44.57;97039.78;6318865;28;20047;-67
2023/03/14 08:21:27;;;;;;;2.03;1.70;;;;;;;5.92;41.70;97038.28;6320733;28;20424;-67
2023/03/14 08:24:32;;;;;;;2.08;1.38;;;;;;;6.53;40.84;97057.28;6323372;28;20344;-67
2023/03/14 08:27:38;;;;;;;1.77;1.50;;;;;;;7.46;39.04;97064.25;6322730;28;20044;-65
2023/03/14 08:30:44;;;;;;;1.25;1.00;;;;;;;7.93;35.74;97058.41;6321764;28;20046;-67
2023/03/14 08:33:51;;;;;;;2.85;1.63;;;;;;;8.00;36.53;97059.75;6322916;28;20047;-67
2023/03/14 08:36:57;;;;;;;1.35;1.25;;;;;;;7.56;35.87;97055.03;6322766;28;20493;-66
2023/03/14 08:40:06;;;;;;;2.50;1.20;;;;;;;6.84;37.29;97060.25;6322926;28;20055;-67
2023/03/14 08:43:10;;;;;;;1.52;1.38;;;;;;;6.43;37.61;97052.56;6322443;28;20452;-67
2023/03/14 08:46:15;;;;;;;1.77;1.15;;;;;;;6.07;38.54;97068.97;6322726;28;20043;-68
2023/03/14 08:49:20;;;;;;;1.40;1.30;;;;;;;5.60;39.25;97066.59;6322794;28;20097;-68
2023/03/14 08:52:24;;;;;;;1.10;1.10;;;;;;;5.51;39.77;97074.81;6322360;28;20050;-67
2023/03/14 08:55:28;;;;;;;1.10;1.00;;;;;;;5.62;40.48;97080.44;6321720;28;20112;-67
2023/03/14 08:58:33;;;;;;;1.50;1.30;;;;;;;5.53;39.71;97075.59;6322593;28;20182;-66
2023/03/14 09:01:38;;;;;;;1.73;1.20;;;;;;;5.27;40.03;97090.56;6322239;28;20050;-67
2023/03/14 09:04:43;;;;;;;1.20;0.95;;;;;;;5.10;39.94;97096.44;6322240;28;20058;-67
2023/03/14 09:07:48;;;;;;;1.48;1.20;;;;;;;4.82;40.46;97091.47;6322337;28;20055;-67
2023/03/14 09:10:53;;;;;;;1.58;1.48;;;;;;;4.82;40.74;97091.47;6322317;28;20069;-66
2023/03/14 09:13:58;;;;;;;1.35;1.23;;;;;;;5.03;40.49;97105.41;6322245;28;20113;-66
2023/03/14 09:17:03;;;;;;;1.33;1.05;;;;;;;5.35;38.57;97106.75;6321947;28;20055;-68
2023/03/14 09:20:08;;;;;;;1.23;1.13;;;;;;;8.66;34.88;97102.66;6321570;28;20523;-67
2023/03/14 09:23:13;;;;;;;1.10;0.90;;;;;;;12.45;28.75;97098.84;6320817;28;20101;-67
2023/03/14 09:26:18;;;;;;;1.02;0.93;;;;;;;14.33;25.64;97104.69;6321889;28;20063;-67
2023/03/14 09:29:24;;;;;;;1.08;0.93;;;;;;;15.90;24.67;97114.38;6321878;28;20048;-67
2023/03/14 09:32:31;;;;;;;1.60;0.80;;;;;;;17.25;23.34;97109.03;6320739;28;20047;-68
2023/03/14 09:35:34;;;;;;;1.33;0.98;;;;;;;17.49;22.02;97111.38;6321671;28;20177;-68
2023/03/14 09:38:38;;;;;;;1.30;1.10;;;;;;;18.25;21.92;97124.03;6320176;28;20089;-67
2023/03/14 09:41:49;;;;;;;1.15;0.63;;;;;;;18.40;20.86;97130.63;6321299;28;20404;-67
2023/03/14 09:45:07;;;;;;;1.00;0.90;;;;;;;16.91;20.83;97132.41;6321298;28;20409;-67
2023/03/14 09:48:26;;;;;;;1.75;1.02;;;;;;;16.24;21.36;97122.19;6321832;28;20046;-67
2023/03/14 09:51:33;;;;;;;0.68;0.60;;;;;;;15.52;20.65;97120.13;6319715;28;20055;-66
2023/03/14 09:54:48;;;;;;;0.80;0.70;;;;;;;15.23;21.36;97136.56;6319291;28;20110;-67
2023/03/14 09:58:09;;;;;;;0.65;0.57;;;;;;;15.13;20.73;97136.44;6320901;28;20043;-66
2023/03/14 10:01:20;;;;;;;1.00;0.70;;;;;;;14.69;20.91;97143.44;6320951;28;20505;-66
2023/03/14 10:04:25;;;;;;;1.80;1.00;;;;;;;14.46;20.96;97144.28;6319384;28;20544;-68
2023/03/14 10:07:32;;;;;;;0.70;0.63;;;;;;;14.01;21.31;97150.31;6320740;28;20055;-67
2023/03/14 10:10:37;;;;;;;0.65;0.60;;;;;;;14.39;21.64;97159.81;6320513;28;20059;-67
2023/03/14 10:13:50;;;;;;;0.80;0.80;;;;;;;14.77;20.68;97167.50;6319215;28;20093;-67
2023/03/14 10:17:04;;;;;;;1.35;0.90;;;;;;;14.07;21.44;97180.75;6320441;28;20505;-66
2023/03/14 10:20:27;;;;;;;1.42;0.60;;;;;;;13.67;21.82;97170.44;6318583;28;20078;-67
2023/03/14 10:23:33;;;;;;;0.70;0.70;;;;;;;14.20;21.15;97184.16;6320190;28;20515;-67
2023/03/14 10:26:38;;;;;;;1.08;0.68;;;;;;;14.47;21.30;97191.00;6320263;28;20052;-68
2023/03/14 10:29:52;;;;;;;;;;;;;;;15.14;21.19;97191.13;6320539;28;20061;-68
2023/03/14 10:32:57;;;;;;;1.27;0.77;;;;;;;15.61;20.95;97215.72;6319898;28;19926;-68
2023/03/14 10:36:14;;;;;;;0.95;0.80;;;;;;;15.40;21.11;97217.41;6320237;28;20044;-67
2023/03/14 10:39:26;;;;;;;0.95;0.60;;;;;;;15.01;21.64;97230.16;6301952;28;20048;-68
2023/03/14 10:42:39;;;;;;;0.50;0.50;;;;;;;15.17;21.59;97228.03;6319894;28;20032;-68
2023/03/14 10:45:51;;;;;;;0.70;0.60;;;;;;;14.29;21.80;97224.97;6319542;28;20054;-67
2023/03/14 10:48:55;;;;;;;1.55;0.60;;;;;;;14.00;22.33;97237.72;6319708;28;20563;-66
2023/03/14 10:52:24;;;;;;;1.30;0.90;;;;;;;14.56;22.30;97248.59;6319863;28;20042;-68
2023/03/14 10:55:39;;;;;;;0.93;0.68;;;;;;;14.48;22.11;97248.28;6310665;28;20085;-67
2023/03/14 10:59:07;;;;;;;2.38;0.85;;;;;;;14.72;22.09;97258.88;6317965;28;20048;-68
2023/03/14 11:02:46;;;;;;;1.08;0.85;;;;;;;14.26;22.18;97252.53;6319584;28;20563;-68
2023/03/14 11:06:05;;;;;;;0.60;0.60;;;;;;;13.42;22.44;97270.03;6319611;28;20070;-67
2023/03/14 11:09:32;;;;;;;0.80;0.60;;;;;;;12.49;23.33;97266.63;6319492;28;20043;-68
2023/03/14 11:12:48;;;;;;;1.00;0.70;;;;;;;12.13;24.44;97268.09;6318872;28;20081;-68
2023/03/14 11:16:20;;;;;;;1.98;0.70;;;;;;;11.88;24.37;97286.44;6319343;28;20039;-68
2023/03/14 11:19:46;;;;;;;2.10;0.70;;;;;;;12.27;23.93;97271.63;6319339;28;20132;-70
2023/03/14 11:23:26;;;;;;;0.98;0.90;;;;;;;11.84;24.20;97296.31;6318923;28;20058;-68
2023/03/14 11:26:55;;;;;;;1.42;1.00;;;;;;;12.16;24.34;97305.78;6306878;28;20048;-68
2023/03/14 11:30:17;;;;;;;2.55;0.70;;;;;;;12.56;23.72;97304.03;6318937;28;20052;-67
2023/03/14 11:33:23;;;;;;;1.33;0.80;;;;;;;12.59;23.39;97267.69;6318622;28;20051;-67
2023/03/14 11:36:33;;;;;;;1.75;0.93;;;;;;;12.67;23.53;97313.88;6318897;28;20083;-68
2023/03/14 11:39:51;;;;;;;2.35;1.60;;;;;;;12.41;23.94;97321.72;6319181;28;20430;-67
2023/03/14 11:43:17;;;;;;;1.10;0.90;;;;;;;11.88;24.69;97331.25;6319171;28;20039;-69
2023/03/14 11:46:41;;;;;;;0.95;0.68;;;;;;;11.14;25.08;97337.53;6319059;28;20044;-67
2023/03/14 11:49:49;;;;;;;2.58;0.80;;;;;;;10.28;25.85;97343.34;6318714;28;20044;-67
2023/03/14 11:53:01;;;;;;;0.75;0.60;;;;;;;9.85;26.43;97345.69;6318594;28;20557;-68
2023/03/14 11:56:04;;;;;;;0.73;0.73;;;;;;;9.60;26.78;97348.78;6320673;28;20056;-68
2023/03/14 11:59:27;;;;;;;1.65;0.70;;;;;;;9.30;27.80;97351.25;6323741;28;20040;-68
2023/03/14 12:02:54;;;;;;;0.82;0.65;;;;;;;9.34;27.83;97360.69;6323824;28;20036;-68
2023/03/14 12:06:19;;;;;;;1.83;1.15;;;;;;;9.18;27.48;97370.28;6275660;28;20048;-69
2023/03/14 12:09:24;;;;;;;4.50;0.77;;;;;;;8.57;27.83;97368.94;6323678;28;20040;-67
2023/03/14 12:12:29;;;;;;;1.63;0.80;;;;;;;8.12;28.43;97374.56;6323195;28;20043;-68
2023/03/14 12:15:50;;;;;;;1.77;1.20;;;;;;;7.89;28.55;97389.59;6322002;28;20044;-68
2023/03/14 12:18:57;;;;;;;2.28;1.17;;;;;;;7.55;28.66;97393.72;6323476;28;20486;-68
2023/03/14 12:22:28;;;;;;;1.33;1.15;;;;;;;8.56;28.13;97403.13;6323347;28;20040;-68
2023/03/14 12:25:33;;;;;;;2.03;1.02;;;;;;;9.74;26.15;97384.84;6323259;28;20044;-67
2023/03/14 12:28:38;;;;;;;4.38;1.10;;;;;;;10.07;25.99;97397.94;6321761;28;20653;-67
2023/03/14 12:32:08;;;;;;;2.15;0.98;;;;;;;9.77;26.72;97410.13;6321408;28;20047;-68
2023/03/14 12:35:34;;;;;;;3.17;1.48;;;;;;;8.65;27.71;97408.75;6322443;28;20054;-69
2023/03/14 12:38:36;;;;;;;0.98;0.90;;;;;;;7.49;28.84;97414.94;6310927;28;20056;-68
2023/03/14 12:42:01;;;;;;;1.90;0.82;;;;;;;6.47;29.46;97413.09;6322959;28;20478;-69
2023/03/14 12:45:14;;;;;;;3.30;0.98;;;;;;;5.75;30.42;97428.06;6322147;28;20429;-68
2023/03/14 12:48:27;;;;;;;2.25;2.05;;;;;;;5.56;30.96;97430.47;6322657;28;20042;-68
2023/03/14 12:51:42;;;;;;;2.60;0.80;;;;;;;5.25;31.36;97443.75;6320790;28;20093;-69
2023/03/14 12:55:04;;;;;;;1.10;0.80;;;;;;;4.95;32.00;97436.91;6322392;28;20075;-68
2023/03/14 12:58:45;;;;;;;1.27;1.02;;;;;;;4.76;32.53;97448.00;6322574;28;20505;-67
2023/03/14 13:02:00;;;;;;;1.67;1.00;;;;;;;4.54;32.70;97451.28;6298327;28;20059;-68
2023/03/14 13:05:10;;;;;;;1.40;0.90;;;;;;;4.17;33.17;97446.38;6322224;28;20036;-67
2023/03/14 13:08:31;;;;;;;5.18;1.00;;;;;;;3.80;33.38;97453.50;6319761;28;20050;-68
2023/03/14 13:11:36;;;;;;;6.85;2.92;;;;;;;3.34;34.02;97448.69;6321786;28;20040;-67
2023/03/14 13:14:47;;;;;;;20.15;8.70;;;;;;;3.08;34.49;97458.03;6320814;28;20496;-68
2023/03/14 13:17:53;;;;;;;27.90;11.68;;;;;;;2.70;35.33;97472.84;6321986;28;20089;-67
2023/03/14 13:21:07;;;;;;;28.08;11.68;;;;;;;2.19;36.13;97465.38;6321833;28;20043;-67
2023/03/14 13:24:26;;;;;;;39.33;13.93;;;;;;;1.66;37.33;97479.47;6320708;28;20040;-69
2023/03/14 13:27:34;;;;;;;33.42;11.75;;;;;;;1.19;37.81;97479.50;6321535;28;20560;-68
2023/03/14 13:30:45;;;;;;;11.07;3.22;;;;;;;0.85;38.72;97485.25;6322006;28;20050;-68
2023/03/14 13:34:00;;;;;;;1.83;1.08;;;;;;;0.51;38.87;97489.22;6320141;28;20506;-66
2023/03/14 13:37:05;;;;;;;1.20;0.93;;;;;;;0.20;39.56;97484.53;6321473;28;20081;-68
2023/03/14 13:40:20;;;;;;;1.70;0.70;;;;;;;-0.03;40.22;97498.63;6319996;28;20048;-68
2023/03/14 13:43:33;;;;;;;1.75;1.10;;;;;;;-0.27;40.90;97509.25;6321452;28;20439;-68
2023/03/14 13:46:38;;;;;;;2.88;1.27;;;;;;;-0.53;41.37;97513.00;6321312;28;20047;-67
2023/03/14 13:49:44;;;;;;;1.75;1.10;;;;;;;-0.88;41.67;97526.25;6321333;28;20113;-68
2023/03/14 13:52:57;;;;;;;1.17;1.08;;;;;;;-1.05;41.95;97526.41;6321019;28;20512;-68
2023/03/14 13:56:06;;;;;;;2.90;1.08;;;;;;;-1.09;42.08;97547.97;6320990;28;20055;-67
2023/03/14 13:59:33;;;;;;;1.67;1.10;;;;;;;-1.22;42.08;97551.50;6320027;28;20047;-67
2023/03/14 14:02:40;;;;;;;2.08;1.38;;;;;;;-1.50;42.74;97568.91;6320914;28;20073;-67
2023/03/14 14:05:46;;;;;;;3.42;1.25;;;;;;;-1.49;42.56;97576.66;6321207;28;20047;-67
2023/03/14 14:08:52;;;;;;;3.78;1.38;;;;;;;-1.76;43.55;97581.94;6320877;28;20036;-67
2023/03/14 14:12:05;;;;;;;6.05;1.23;;;;;;;-1.87;42.76;97585.44;6320491;28;20058;-67
2023/03/14 14:15:21;;;;;;;1.67;1.05;;;;;;;-2.00;43.14;97591.50;6318627;28;20058;-68
2023/03/14 14:18:28;;;;;;;1.33;0.95;;;;;;;-2.09;43.54;97587.25;6319944;28;20050;-68
2023/03/14 14:21:33;;;;;;;1.42;0.90;;;;;;;-2.13;44.10;97595.00;6320293;28;20054;-66
2023/03/14 14:24:39;;;;;;;3.72;1.30;;;;;;;-2.37;44.23;97606.25;6318914;28;20433;-68
2023/03/14 14:27:50;;;;;;;2.85;1.08;;;;;;;-2.43;44.66;97612.25;6320353;28;20078;-67
2023/03/14 14:31:15;;;;;;;3.33;1.13;;;;;;;-2.41;44.77;97613.09;6320372;28;20032;-66
2023/03/14 14:34:20;;;;;;;2.53;1.20;;;;;;;-2.64;45.43;97620.00;6320165;28;20085;-67
2023/03/14 14:37:29;;;;;;;2.72;1.30;;;;;;;-2.77;46.01;97637.19;6319924;28;20040;-67
2023/03/14 14:40:33;;;;;;;3.72;1.52;;;;;;;-2.83;46.18;97627.75;6320244;28;20571;-67
2023/03/14 14:43:40;;;;;;;5.07;2.33;;;;;;;-3.02;46.47;97631.16;6320109;28;20036;-68
2023/03/14 14:46:45;;;;;;;8.32;2.95;;;;;;;-3.12;46.83;97639.72;6319920;28;20085;-68
2023/03/14 14:49:48;;;;;;;;;;;;;;;-3.16;46.47;97651.75;6320252;28;20036;-67
2023/03/14 14:53:00;;;;;;;5.57;2.70;;;;;;;-3.11;47.05;97659.47;6319770;28;20052;-68
2023/03/14 14:56:24;;;;;;;5.07;2.67;;;;;;;-3.16;47.26;97655.16;6319432;28;20117;-68
2023/03/14 14:59:30;;;;;;;2.15;1.17;;;;;;;-3.23;47.03;97658.59;6319883;28;20036;-68
2023/03/14 15:02:45;;;;;;;5.28;2.30;;;;;;;-3.34;47.59;97657.72;6319870;28;20040;-68
2023/03/14 15:05:50;;;;;;;6.07;2.13;;;;;;;-3.42;47.75;97659.41;6319752;28;20050;-67